sensor_id;sensor_type;location;lat;lon;timestamp;P1;durP1;ratioP1;P2;durP2;ratioP2
51556;SDS011;38766;53.194;5.532;2022-11-15T00:01:32;22.85;;;14.68;;
51556;SDS011;38766;53.194;5.532;2022-11-15T00:03:58;24.65;;;15.73;;
51556;SDS011;38766;53.194;5.532;2022-11-15T00:06:23;22.88;;;15.27;;
51556;SDS011;38766;53.194;5.532;2022-11-15T00:08:49;22.95;;;14.43;;
51556;SDS011;38766;53.194;5.532;2022-11-15T00:11:14;24.48;;;15.18;;
51556;SDS011;38766;53.194;5.532;2022-11-15T00:13:40;23.45;;;15.60;;
51556;SDS011;38766;53.194;5.532;2022-11-15T00:16:06;22.90;;;14.68;;
51556;SDS011;38766;53.194;5.532;2022-11-15T00:18:33;23.42;;;16.08;;
51556;SDS011;38766;53.194;5.532;2022-11-15T00:21:03;29.13;;;16.23;;
51556;SDS011;38766;53.194;5.532;2022-11-15T00:23:31;23.08;;;15.82;;
51556;SDS011;38766;53.194;5.532;2022-11-15T00:25:58;24.92;;;16.13;;
51556;SDS011;38766;53.194;5.532;2022-11-15T00:28:24;25.10;;;16.17;;
51556;SDS011;38766;53.194;5.532;2022-11-15T00:30:50;21.90;;;15.43;;
51556;SDS011;38766;53.194;5.532;2022-11-15T00:33:16;26.20;;;16.25;;
51556;SDS011;38766;53.194;5.532;2022-11-15T00:35:42;24.73;;;16.17;;
51556;SDS011;38766;53.194;5.532;2022-11-15T00:38:07;23.35;;;15.68;;
51556;SDS011;38766;53.194;5.532;2022-11-15T00:40:33;28.90;;;17.63;;
51556;SDS011;38766;53.194;5.532;2022-11-15T00:42:59;26.88;;;17.45;;
51556;SDS011;38766;53.194;5.532;2022-11-15T00:45:25;28.52;;;17.95;;
51556;SDS011;38766;53.194;5.532;2022-11-15T00:47:51;27.92;;;18.00;;
51556;SDS011;38766;53.194;5.532;2022-11-15T00:50:17;27.92;;;17.92;;
51556;SDS011;38766;53.194;5.532;2022-11-15T00:52:43;26.35;;;17.92;;
51556;SDS011;38766;53.194;5.532;2022-11-15T00:55:15;26.20;;;18.45;;
51556;SDS011;38766;53.194;5.532;2022-11-15T00:57:42;26.98;;;18.98;;
51556;SDS011;38766;53.194;5.532;2022-11-15T01:00:08;29.15;;;19.48;;
51556;SDS011;38766;53.194;5.532;2022-11-15T01:02:34;28.50;;;19.17;;
51556;SDS011;38766;53.194;5.532;2022-11-15T01:05:00;28.65;;;18.75;;
51556;SDS011;38766;53.194;5.532;2022-11-15T01:07:25;32.13;;;19.55;;
51556;SDS011;38766;53.194;5.532;2022-11-15T01:09:51;30.42;;;20.23;;
51556;SDS011;38766;53.194;5.532;2022-11-15T01:12:16;30.48;;;19.17;;
51556;SDS011;38766;53.194;5.532;2022-11-15T01:14:42;29.75;;;20.80;;
51556;SDS011;38766;53.194;5.532;2022-11-15T01:17:08;33.58;;;21.35;;
51556;SDS011;38766;53.194;5.532;2022-11-15T01:19:33;30.20;;;19.45;;
51556;SDS011;38766;53.194;5.532;2022-11-15T01:21:59;31.30;;;19.90;;
51556;SDS011;38766;53.194;5.532;2022-11-15T01:24:25;30.77;;;20.02;;
51556;SDS011;38766;53.194;5.532;2022-11-15T01:26:50;29.92;;;20.67;;
51556;SDS011;38766;53.194;5.532;2022-11-15T01:29:16;31.20;;;20.17;;
51556;SDS011;38766;53.194;5.532;2022-11-15T01:31:41;31.15;;;20.20;;
51556;SDS011;38766;53.194;5.532;2022-11-15T01:34:11;30.38;;;19.95;;
51556;SDS011;38766;53.194;5.532;2022-11-15T01:36:36;31.52;;;20.05;;
51556;SDS011;38766;53.194;5.532;2022-11-15T01:39:02;34.17;;;21.27;;
51556;SDS011;38766;53.194;5.532;2022-11-15T01:41:29;33.65;;;20.67;;
51556;SDS011;38766;53.194;5.532;2022-11-15T01:43:58;32.50;;;20.80;;
51556;SDS011;38766;53.194;5.532;2022-11-15T01:47:02;35.42;;;22.90;;
51556;SDS011;38766;53.194;5.532;2022-11-15T01:49:32;35.80;;;22.05;;
51556;SDS011;38766;53.194;5.532;2022-11-15T01:52:00;34.75;;;22.02;;
51556;SDS011;38766;53.194;5.532;2022-11-15T01:54:29;35.40;;;22.55;;
51556;SDS011;38766;53.194;5.532;2022-11-15T01:56:57;35.53;;;22.63;;
51556;SDS011;38766;53.194;5.532;2022-11-15T01:59:29;33.67;;;21.40;;
51556;SDS011;38766;53.194;5.532;2022-11-15T02:01:55;38.70;;;23.23;;
51556;SDS011;38766;53.194;5.532;2022-11-15T02:04:24;39.38;;;23.77;;
51556;SDS011;38766;53.194;5.532;2022-11-15T02:06:53;37.63;;;22.75;;
51556;SDS011;38766;53.194;5.532;2022-11-15T02:09:19;38.55;;;23.02;;
51556;SDS011;38766;53.194;5.532;2022-11-15T02:11:44;36.78;;;22.55;;
51556;SDS011;38766;53.194;5.532;2022-11-15T02:14:12;38.80;;;22.95;;
51556;SDS011;38766;53.194;5.532;2022-11-15T02:31:07;38.40;;;22.17;;
51556;SDS011;38766;53.194;5.532;2022-11-15T02:39:08;37.05;;;21.50;;
51556;SDS011;38766;53.194;5.532;2022-11-15T02:41:56;38.55;;;23.05;;
51556;SDS011;38766;53.194;5.532;2022-11-15T02:44:31;40.85;;;23.42;;
51556;SDS011;38766;53.194;5.532;2022-11-15T02:47:11;40.50;;;23.50;;
51556;SDS011;38766;53.194;5.532;2022-11-15T02:52:15;36.53;;;21.70;;
51556;SDS011;38766;53.194;5.532;2022-11-15T02:54:42;39.92;;;22.20;;
51556;SDS011;38766;53.194;5.532;2022-11-15T02:57:11;35.83;;;23.05;;
51556;SDS011;38766;53.194;5.532;2022-11-15T02:59:56;33.83;;;21.63;;
51556;SDS011;38766;53.194;5.532;2022-11-15T03:05:31;38.75;;;22.80;;
51556;SDS011;38766;53.194;5.532;2022-11-15T03:08:10;36.63;;;21.95;;
51556;SDS011;38766;53.194;5.532;2022-11-15T03:15:51;37.83;;;21.35;;
51556;SDS011;38766;53.194;5.532;2022-11-15T03:18:27;37.97;;;22.45;;
51556;SDS011;38766;53.194;5.532;2022-11-15T03:21:02;35.05;;;21.33;;
51556;SDS011;38766;53.194;5.532;2022-11-15T03:23:31;37.85;;;21.05;;
51556;SDS011;38766;53.194;5.532;2022-11-15T03:25:59;35.97;;;22.55;;
51556;SDS011;38766;53.194;5.532;2022-11-15T03:28:32;42.83;;;23.23;;
51556;SDS011;38766;53.194;5.532;2022-11-15T03:31:15;40.63;;;23.48;;
51556;SDS011;38766;53.194;5.532;2022-11-15T03:34:03;39.17;;;23.38;;
51556;SDS011;38766;53.194;5.532;2022-11-15T03:36:32;45.53;;;23.45;;
51556;SDS011;38766;53.194;5.532;2022-11-15T03:39:06;46.65;;;25.35;;
51556;SDS011;38766;53.194;5.532;2022-11-15T03:41:35;53.63;;;26.20;;
51556;SDS011;38766;53.194;5.532;2022-11-15T03:44:15;54.20;;;26.45;;
51556;SDS011;38766;53.194;5.532;2022-11-15T03:46:52;55.80;;;26.17;;
51556;SDS011;38766;53.194;5.532;2022-11-15T03:49:40;63.08;;;27.58;;
51556;SDS011;38766;53.194;5.532;2022-11-15T03:52:11;58.72;;;28.27;;
51556;SDS011;38766;53.194;5.532;2022-11-15T03:54:44;69.93;;;28.33;;
51556;SDS011;38766;53.194;5.532;2022-11-15T03:57:20;61.10;;;27.25;;
51556;SDS011;38766;53.194;5.532;2022-11-15T03:59:46;56.85;;;26.90;;
51556;SDS011;38766;53.194;5.532;2022-11-15T04:02:11;68.53;;;28.98;;
51556;SDS011;38766;53.194;5.532;2022-11-15T04:04:39;65.22;;;29.48;;
51556;SDS011;38766;53.194;5.532;2022-11-15T04:07:04;64.90;;;25.60;;
51556;SDS011;38766;53.194;5.532;2022-11-15T04:09:30;66.10;;;28.30;;
51556;SDS011;38766;53.194;5.532;2022-11-15T04:11:55;71.70;;;28.65;;
51556;SDS011;38766;53.194;5.532;2022-11-15T04:14:21;67.78;;;27.42;;
51556;SDS011;38766;53.194;5.532;2022-11-15T04:16:47;68.00;;;28.65;;
51556;SDS011;38766;53.194;5.532;2022-11-15T04:19:12;62.53;;;27.27;;
51556;SDS011;38766;53.194;5.532;2022-11-15T04:21:56;67.53;;;28.90;;
51556;SDS011;38766;53.194;5.532;2022-11-15T04:24:41;79.80;;;29.77;;
51556;SDS011;38766;53.194;5.532;2022-11-15T04:27:06;83.47;;;31.17;;
51556;SDS011;38766;53.194;5.532;2022-11-15T04:29:32;80.47;;;31.02;;
51556;SDS011;38766;53.194;5.532;2022-11-15T04:32:04;75.78;;;29.45;;
51556;SDS011;38766;53.194;5.532;2022-11-15T04:34:31;87.75;;;29.88;;
51556;SDS011;38766;53.194;5.532;2022-11-15T04:36:57;83.97;;;29.90;;
51556;SDS011;38766;53.194;5.532;2022-11-15T04:39:41;81.32;;;29.80;;
51556;SDS011;38766;53.194;5.532;2022-11-15T04:42:07;82.03;;;31.95;;
51556;SDS011;38766;53.194;5.532;2022-11-15T04:44:33;89.25;;;31.48;;
51556;SDS011;38766;53.194;5.532;2022-11-15T04:46:59;83.97;;;31.40;;
51556;SDS011;38766;53.194;5.532;2022-11-15T04:49:25;78.05;;;29.95;;
51556;SDS011;38766;53.194;5.532;2022-11-15T04:51:50;81.88;;;30.35;;
51556;SDS011;38766;53.194;5.532;2022-11-15T04:54:16;71.18;;;29.63;;
51556;SDS011;38766;53.194;5.532;2022-11-15T04:56:42;72.32;;;28.83;;
51556;SDS011;38766;53.194;5.532;2022-11-15T04:59:07;75.25;;;29.48;;
51556;SDS011;38766;53.194;5.532;2022-11-15T05:01:33;73.30;;;28.35;;
51556;SDS011;38766;53.194;5.532;2022-11-15T05:03:58;77.80;;;28.73;;
51556;SDS011;38766;53.194;5.532;2022-11-15T05:06:43;76.75;;;27.77;;
51556;SDS011;38766;53.194;5.532;2022-11-15T05:09:08;75.68;;;29.33;;
51556;SDS011;38766;53.194;5.532;2022-11-15T05:11:34;68.70;;;28.92;;
51556;SDS011;38766;53.194;5.532;2022-11-15T05:14:00;69.38;;;27.10;;
51556;SDS011;38766;53.194;5.532;2022-11-15T05:16:25;71.28;;;28.65;;
51556;SDS011;38766;53.194;5.532;2022-11-15T05:18:51;64.20;;;28.73;;
51556;SDS011;38766;53.194;5.532;2022-11-15T05:21:20;70.47;;;28.33;;
51556;SDS011;38766;53.194;5.532;2022-11-15T05:23:46;78.03;;;28.98;;
51556;SDS011;38766;53.194;5.532;2022-11-15T05:26:12;69.55;;;27.10;;
51556;SDS011;38766;53.194;5.532;2022-11-15T05:28:39;65.30;;;27.42;;
51556;SDS011;38766;53.194;5.532;2022-11-15T05:31:07;75.03;;;28.42;;
51556;SDS011;38766;53.194;5.532;2022-11-15T05:33:38;79.38;;;29.70;;
51556;SDS011;38766;53.194;5.532;2022-11-15T05:36:07;76.18;;;28.50;;
51556;SDS011;38766;53.194;5.532;2022-11-15T05:38:42;95.35;;;30.60;;
51556;SDS011;38766;53.194;5.532;2022-11-15T05:41:08;92.47;;;31.98;;
51556;SDS011;38766;53.194;5.532;2022-11-15T05:43:35;89.28;;;30.30;;
51556;SDS011;38766;53.194;5.532;2022-11-15T05:46:04;85.97;;;30.23;;
51556;SDS011;38766;53.194;5.532;2022-11-15T05:48:30;84.40;;;30.35;;
51556;SDS011;38766;53.194;5.532;2022-11-15T05:50:57;81.70;;;30.42;;
51556;SDS011;38766;53.194;5.532;2022-11-15T05:53:23;85.57;;;30.08;;
51556;SDS011;38766;53.194;5.532;2022-11-15T05:55:54;80.18;;;29.95;;
51556;SDS011;38766;53.194;5.532;2022-11-15T05:58:19;87.10;;;29.95;;
51556;SDS011;38766;53.194;5.532;2022-11-15T06:00:45;82.72;;;29.95;;
51556;SDS011;38766;53.194;5.532;2022-11-15T06:03:11;81.53;;;31.05;;
51556;SDS011;38766;53.194;5.532;2022-11-15T06:05:39;74.25;;;29.90;;
51556;SDS011;38766;53.194;5.532;2022-11-15T06:08:05;84.07;;;31.17;;
51556;SDS011;38766;53.194;5.532;2022-11-15T06:10:31;70.70;;;28.30;;
51556;SDS011;38766;53.194;5.532;2022-11-15T06:13:01;84.30;;;30.38;;
51556;SDS011;38766;53.194;5.532;2022-11-15T06:15:28;66.93;;;29.38;;
51556;SDS011;38766;53.194;5.532;2022-11-15T06:17:57;89.05;;;30.77;;
51556;SDS011;38766;53.194;5.532;2022-11-15T06:20:26;85.53;;;31.15;;
51556;SDS011;38766;53.194;5.532;2022-11-15T06:22:57;83.90;;;30.55;;
51556;SDS011;38766;53.194;5.532;2022-11-15T06:25:23;77.50;;;31.55;;
51556;SDS011;38766;53.194;5.532;2022-11-15T06:27:52;93.65;;;32.65;;
51556;SDS011;38766;53.194;5.532;2022-11-15T06:30:19;88.55;;;31.27;;
51556;SDS011;38766;53.194;5.532;2022-11-15T06:32:45;90.00;;;31.90;;
51556;SDS011;38766;53.194;5.532;2022-11-15T06:35:10;84.70;;;30.60;;
51556;SDS011;38766;53.194;5.532;2022-11-15T06:37:36;99.30;;;35.15;;
51556;SDS011;38766;53.194;5.532;2022-11-15T06:40:02;91.88;;;32.47;;
51556;SDS011;38766;53.194;5.532;2022-11-15T06:42:28;101.22;;;34.13;;
51556;SDS011;38766;53.194;5.532;2022-11-15T06:44:53;115.40;;;37.80;;
51556;SDS011;38766;53.194;5.532;2022-11-15T06:47:19;111.45;;;37.22;;
51556;SDS011;38766;53.194;5.532;2022-11-15T06:49:44;113.05;;;37.80;;
51556;SDS011;38766;53.194;5.532;2022-11-15T06:52:10;116.18;;;35.88;;
51556;SDS011;38766;53.194;5.532;2022-11-15T06:54:35;116.75;;;39.45;;
51556;SDS011;38766;53.194;5.532;2022-11-15T06:57:01;120.65;;;38.28;;
51556;SDS011;38766;53.194;5.532;2022-11-15T06:59:28;113.55;;;37.72;;
51556;SDS011;38766;53.194;5.532;2022-11-15T07:01:54;121.88;;;40.15;;
51556;SDS011;38766;53.194;5.532;2022-11-15T07:04:20;106.07;;;36.47;;
51556;SDS011;38766;53.194;5.532;2022-11-15T07:06:46;107.82;;;40.45;;
51556;SDS011;38766;53.194;5.532;2022-11-15T07:09:15;119.95;;;40.85;;
51556;SDS011;38766;53.194;5.532;2022-11-15T07:11:40;128.60;;;43.67;;
51556;SDS011;38766;53.194;5.532;2022-11-15T07:14:06;125.68;;;46.03;;
51556;SDS011;38766;53.194;5.532;2022-11-15T07:16:31;122.15;;;43.92;;
51556;SDS011;38766;53.194;5.532;2022-11-15T07:18:57;117.13;;;43.42;;
51556;SDS011;38766;53.194;5.532;2022-11-15T07:21:23;106.60;;;42.28;;
51556;SDS011;38766;53.194;5.532;2022-11-15T07:23:49;99.07;;;40.80;;
51556;SDS011;38766;53.194;5.532;2022-11-15T07:26:14;116.10;;;43.20;;
51556;SDS011;38766;53.194;5.532;2022-11-15T07:28:40;99.78;;;40.08;;
51556;SDS011;38766;53.194;5.532;2022-11-15T07:31:06;98.70;;;40.47;;
51556;SDS011;38766;53.194;5.532;2022-11-15T07:33:33;105.82;;;41.20;;
51556;SDS011;38766;53.194;5.532;2022-11-15T07:36:03;98.95;;;40.17;;
51556;SDS011;38766;53.194;5.532;2022-11-15T07:38:30;84.30;;;39.35;;
51556;SDS011;38766;53.194;5.532;2022-11-15T07:40:57;86.78;;;38.03;;
51556;SDS011;38766;53.194;5.532;2022-11-15T07:43:24;91.40;;;40.05;;
51556;SDS011;38766;53.194;5.532;2022-11-15T07:45:50;76.20;;;34.83;;
51556;SDS011;38766;53.194;5.532;2022-11-15T07:48:15;78.70;;;36.03;;
51556;SDS011;38766;53.194;5.532;2022-11-15T07:50:41;73.55;;;35.28;;
51556;SDS011;38766;53.194;5.532;2022-11-15T07:53:07;71.30;;;35.17;;
51556;SDS011;38766;53.194;5.532;2022-11-15T07:55:34;79.13;;;35.75;;
51556;SDS011;38766;53.194;5.532;2022-11-15T07:58:00;72.43;;;36.13;;
51556;SDS011;38766;53.194;5.532;2022-11-15T08:00:30;69.78;;;33.55;;
51556;SDS011;38766;53.194;5.532;2022-11-15T08:03:03;62.20;;;31.52;;
51556;SDS011;38766;53.194;5.532;2022-11-15T08:05:37;60.15;;;30.80;;
51556;SDS011;38766;53.194;5.532;2022-11-15T08:08:04;63.83;;;32.25;;
51556;SDS011;38766;53.194;5.532;2022-11-15T08:10:31;68.03;;;31.15;;
51556;SDS011;38766;53.194;5.532;2022-11-15T08:13:01;62.80;;;30.15;;
51556;SDS011;38766;53.194;5.532;2022-11-15T08:15:28;56.22;;;30.88;;
51556;SDS011;38766;53.194;5.532;2022-11-15T08:17:55;55.58;;;30.77;;
51556;SDS011;38766;53.194;5.532;2022-11-15T08:20:21;54.40;;;30.67;;
51556;SDS011;38766;53.194;5.532;2022-11-15T08:22:47;62.90;;;33.00;;
51556;SDS011;38766;53.194;5.532;2022-11-15T08:25:12;65.45;;;31.83;;
51556;SDS011;38766;53.194;5.532;2022-11-15T08:27:38;57.75;;;30.73;;
51556;SDS011;38766;53.194;5.532;2022-11-15T08:30:04;53.85;;;30.13;;
51556;SDS011;38766;53.194;5.532;2022-11-15T08:32:30;51.22;;;28.77;;
51556;SDS011;38766;53.194;5.532;2022-11-15T08:34:56;50.17;;;28.50;;
51556;SDS011;38766;53.194;5.532;2022-11-15T08:37:21;53.78;;;27.65;;
51556;SDS011;38766;53.194;5.532;2022-11-15T08:39:47;53.20;;;29.50;;
51556;SDS011;38766;53.194;5.532;2022-11-15T08:42:13;50.08;;;29.13;;
51556;SDS011;38766;53.194;5.532;2022-11-15T08:44:39;44.97;;;25.83;;
51556;SDS011;38766;53.194;5.532;2022-11-15T08:47:05;46.67;;;27.45;;
51556;SDS011;38766;53.194;5.532;2022-11-15T08:49:31;46.97;;;27.75;;
51556;SDS011;38766;53.194;5.532;2022-11-15T08:51:56;57.42;;;30.20;;
51556;SDS011;38766;53.194;5.532;2022-11-15T08:54:22;48.20;;;28.67;;
51556;SDS011;38766;53.194;5.532;2022-11-15T08:56:47;45.85;;;25.65;;
51556;SDS011;38766;53.194;5.532;2022-11-15T08:59:13;40.17;;;25.80;;
51556;SDS011;38766;53.194;5.532;2022-11-15T09:01:39;42.40;;;25.63;;
51556;SDS011;38766;53.194;5.532;2022-11-15T09:04:04;37.88;;;24.63;;
51556;SDS011;38766;53.194;5.532;2022-11-15T09:06:30;40.30;;;25.08;;
51556;SDS011;38766;53.194;5.532;2022-11-15T09:08:56;42.00;;;24.80;;
51556;SDS011;38766;53.194;5.532;2022-11-15T09:11:22;38.42;;;24.73;;
51556;SDS011;38766;53.194;5.532;2022-11-15T09:13:48;48.33;;;26.77;;
51556;SDS011;38766;53.194;5.532;2022-11-15T09:16:14;36.97;;;24.20;;
51556;SDS011;38766;53.194;5.532;2022-11-15T09:18:40;36.63;;;22.80;;
51556;SDS011;38766;53.194;5.532;2022-11-15T09:21:06;40.05;;;23.65;;
51556;SDS011;38766;53.194;5.532;2022-11-15T09:23:32;37.97;;;23.95;;
51556;SDS011;38766;53.194;5.532;2022-11-15T09:25:59;37.72;;;23.30;;
51556;SDS011;38766;53.194;5.532;2022-11-15T09:28:26;37.42;;;22.55;;
51556;SDS011;38766;53.194;5.532;2022-11-15T09:31:00;36.22;;;23.35;;
51556;SDS011;38766;53.194;5.532;2022-11-15T09:33:26;37.90;;;22.77;;
51556;SDS011;38766;53.194;5.532;2022-11-15T09:35:53;35.15;;;22.13;;
51556;SDS011;38766;53.194;5.532;2022-11-15T09:38:18;38.22;;;24.45;;
51556;SDS011;38766;53.194;5.532;2022-11-15T09:40:45;36.50;;;23.10;;
51556;SDS011;38766;53.194;5.532;2022-11-15T09:48:26;32.80;;;22.33;;
51556;SDS011;38766;53.194;5.532;2022-11-15T09:51:03;36.22;;;21.25;;
51556;SDS011;38766;53.194;5.532;2022-11-15T09:53:32;32.75;;;20.90;;
51556;SDS011;38766;53.194;5.532;2022-11-15T09:56:03;32.60;;;21.27;;
51556;SDS011;38766;53.194;5.532;2022-11-15T09:58:51;28.95;;;19.98;;
51556;SDS011;38766;53.194;5.532;2022-11-15T10:01:33;28.88;;;20.52;;
51556;SDS011;38766;53.194;5.532;2022-11-15T10:04:04;34.65;;;20.25;;
51556;SDS011;38766;53.194;5.532;2022-11-15T10:06:30;30.42;;;19.35;;
51556;SDS011;38766;53.194;5.532;2022-11-15T10:11:36;29.90;;;18.92;;
51556;SDS011;38766;53.194;5.532;2022-11-15T10:24:17;23.77;;;16.08;;
51556;SDS011;38766;53.194;5.532;2022-11-15T10:26:48;24.73;;;17.52;;
51556;SDS011;38766;53.194;5.532;2022-11-15T10:29:18;26.63;;;17.13;;
51556;SDS011;38766;53.194;5.532;2022-11-15T10:31:45;26.65;;;18.13;;
51556;SDS011;38766;53.194;5.532;2022-11-15T10:34:18;24.40;;;16.55;;
51556;SDS011;38766;53.194;5.532;2022-11-15T10:36:46;29.65;;;17.00;;
51556;SDS011;38766;53.194;5.532;2022-11-15T10:39:22;22.70;;;17.25;;
51556;SDS011;38766;53.194;5.532;2022-11-15T10:41:48;24.17;;;17.23;;
51556;SDS011;38766;53.194;5.532;2022-11-15T10:46:40;25.13;;;17.35;;
51556;SDS011;38766;53.194;5.532;2022-11-15T10:51:43;26.75;;;17.95;;
51556;SDS011;38766;53.194;5.532;2022-11-15T10:54:22;26.92;;;16.70;;
51556;SDS011;38766;53.194;5.532;2022-11-15T10:56:51;23.88;;;15.65;;
51556;SDS011;38766;53.194;5.532;2022-11-15T10:59:28;22.75;;;15.68;;
51556;SDS011;38766;53.194;5.532;2022-11-15T11:01:56;24.65;;;16.27;;
51556;SDS011;38766;53.194;5.532;2022-11-15T11:04:22;26.00;;;16.52;;
51556;SDS011;38766;53.194;5.532;2022-11-15T11:06:49;24.38;;;14.85;;
51556;SDS011;38766;53.194;5.532;2022-11-15T11:09:25;23.42;;;14.85;;
51556;SDS011;38766;53.194;5.532;2022-11-15T11:11:57;29.40;;;14.48;;
51556;SDS011;38766;53.194;5.532;2022-11-15T11:14:25;21.38;;;13.85;;
51556;SDS011;38766;53.194;5.532;2022-11-15T11:22:17;19.00;;;13.95;;
51556;SDS011;38766;53.194;5.532;2022-11-15T11:33:34;18.17;;;12.82;;
51556;SDS011;38766;53.194;5.532;2022-11-15T11:38:49;18.67;;;12.15;;
51556;SDS011;38766;53.194;5.532;2022-11-15T11:47:12;20.92;;;12.07;;
51556;SDS011;38766;53.194;5.532;2022-11-15T11:49:53;21.83;;;12.27;;
51556;SDS011;38766;53.194;5.532;2022-11-15T11:52:39;18.45;;;11.52;;
51556;SDS011;38766;53.194;5.532;2022-11-15T11:58:03;17.83;;;11.32;;
51556;SDS011;38766;53.194;5.532;2022-11-15T12:00:29;15.90;;;10.90;;
51556;SDS011;38766;53.194;5.532;2022-11-15T12:05:44;16.48;;;11.38;;
51556;SDS011;38766;53.194;5.532;2022-11-15T12:08:26;17.02;;;9.52;;
51556;SDS011;38766;53.194;5.532;2022-11-15T12:11:03;17.20;;;10.45;;
51556;SDS011;38766;53.194;5.532;2022-11-15T12:13:41;15.73;;;10.25;;
51556;SDS011;38766;53.194;5.532;2022-11-15T12:18:47;15.80;;;10.90;;
51556;SDS011;38766;53.194;5.532;2022-11-15T12:24:08;14.05;;;9.10;;
51556;SDS011;38766;53.194;5.532;2022-11-15T12:26:55;14.20;;;9.32;;
51556;SDS011;38766;53.194;5.532;2022-11-15T12:29:28;8.68;;;6.70;;
51556;SDS011;38766;53.194;5.532;2022-11-15T12:32:00;13.48;;;6.75;;
51556;SDS011;38766;53.194;5.532;2022-11-15T12:37:00;8.98;;;6.10;;
51556;SDS011;38766;53.194;5.532;2022-11-15T12:47:26;9.65;;;6.50;;
51556;SDS011;38766;53.194;5.532;2022-11-15T12:49:52;8.90;;;5.65;;
51556;SDS011;38766;53.194;5.532;2022-11-15T12:52:18;6.15;;;5.10;;
51556;SDS011;38766;53.194;5.532;2022-11-15T12:54:52;7.82;;;5.53;;
51556;SDS011;38766;53.194;5.532;2022-11-15T13:04:55;8.90;;;5.88;;
51556;SDS011;38766;53.194;5.532;2022-11-15T13:17:39;8.25;;;5.50;;
51556;SDS011;38766;53.194;5.532;2022-11-15T13:28:02;8.35;;;4.80;;
51556;SDS011;38766;53.194;5.532;2022-11-15T13:30:36;8.98;;;4.53;;
51556;SDS011;38766;53.194;5.532;2022-11-15T13:33:45;5.20;;;4.18;;
51556;SDS011;38766;53.194;5.532;2022-11-15T13:36:09;7.03;;;4.10;;
51556;SDS011;38766;53.194;5.532;2022-11-15T13:38:45;5.82;;;4.00;;
51556;SDS011;38766;53.194;5.532;2022-11-15T13:41:27;4.82;;;3.45;;
51556;SDS011;38766;53.194;5.532;2022-11-15T13:43:55;6.65;;;3.97;;
51556;SDS011;38766;53.194;5.532;2022-11-15T13:46:23;6.47;;;4.55;;
51556;SDS011;38766;53.194;5.532;2022-11-15T13:49:01;7.13;;;3.95;;
51556;SDS011;38766;53.194;5.532;2022-11-15T13:56:43;7.63;;;3.92;;
51556;SDS011;38766;53.194;5.532;2022-11-15T13:59:35;4.32;;;3.72;;
51556;SDS011;38766;53.194;5.532;2022-11-15T14:02:11;7.32;;;3.70;;
51556;SDS011;38766;53.194;5.532;2022-11-15T14:04:50;8.05;;;4.35;;
51556;SDS011;38766;53.194;5.532;2022-11-15T14:07:19;4.97;;;3.25;;
51556;SDS011;38766;53.194;5.532;2022-11-15T14:09:46;6.63;;;3.65;;
51556;SDS011;38766;53.194;5.532;2022-11-15T14:14:58;3.97;;;3.05;;
51556;SDS011;38766;53.194;5.532;2022-11-15T14:19:53;4.80;;;3.35;;
51556;SDS011;38766;53.194;5.532;2022-11-15T14:22:21;4.82;;;3.28;;
51556;SDS011;38766;53.194;5.532;2022-11-15T14:27:44;5.13;;;3.50;;
51556;SDS011;38766;53.194;5.532;2022-11-15T14:30:34;5.70;;;3.55;;
51556;SDS011;38766;53.194;5.532;2022-11-15T14:32:59;5.72;;;3.83;;
51556;SDS011;38766;53.194;5.532;2022-11-15T14:35:25;5.82;;;4.35;;
51556;SDS011;38766;53.194;5.532;2022-11-15T14:37:51;8.05;;;4.03;;
51556;SDS011;38766;53.194;5.532;2022-11-15T14:40:19;6.55;;;4.40;;
51556;SDS011;38766;53.194;5.532;2022-11-15T14:42:46;7.25;;;4.10;;
51556;SDS011;38766;53.194;5.532;2022-11-15T14:45:19;4.45;;;3.70;;
51556;SDS011;38766;53.194;5.532;2022-11-15T14:47:46;5.18;;;3.78;;
51556;SDS011;38766;53.194;5.532;2022-11-15T14:50:12;4.97;;;3.92;;
51556;SDS011;38766;53.194;5.532;2022-11-15T14:52:40;4.68;;;3.15;;
51556;SDS011;38766;53.194;5.532;2022-11-15T14:55:22;5.53;;;3.70;;
51556;SDS011;38766;53.194;5.532;2022-11-15T14:57:50;5.53;;;3.77;;
51556;SDS011;38766;53.194;5.532;2022-11-15T15:00:17;6.75;;;3.70;;
51556;SDS011;38766;53.194;5.532;2022-11-15T15:02:44;4.95;;;3.85;;
51556;SDS011;38766;53.194;5.532;2022-11-15T15:07:41;6.32;;;3.42;;
51556;SDS011;38766;53.194;5.532;2022-11-15T15:10:07;6.88;;;3.10;;
51556;SDS011;38766;53.194;5.532;2022-11-15T15:12:33;8.23;;;3.28;;
51556;SDS011;38766;53.194;5.532;2022-11-15T15:14:59;4.88;;;3.45;;
51556;SDS011;38766;53.194;5.532;2022-11-15T15:17:24;4.90;;;3.60;;
51556;SDS011;38766;53.194;5.532;2022-11-15T15:19:50;4.55;;;3.10;;
51556;SDS011;38766;53.194;5.532;2022-11-15T15:22:16;4.65;;;3.10;;
51556;SDS011;38766;53.194;5.532;2022-11-15T15:24:44;5.38;;;3.25;;
51556;SDS011;38766;53.194;5.532;2022-11-15T15:27:10;4.05;;;2.95;;
51556;SDS011;38766;53.194;5.532;2022-11-15T15:29:36;5.18;;;3.30;;
51556;SDS011;38766;53.194;5.532;2022-11-15T15:32:02;6.07;;;3.13;;
51556;SDS011;38766;53.194;5.532;2022-11-15T15:34:28;5.18;;;3.05;;
51556;SDS011;38766;53.194;5.532;2022-11-15T15:39:45;5.13;;;2.88;;
51556;SDS011;38766;53.194;5.532;2022-11-15T15:42:10;6.63;;;3.25;;
51556;SDS011;38766;53.194;5.532;2022-11-15T15:44:36;4.88;;;3.13;;
51556;SDS011;38766;53.194;5.532;2022-11-15T15:47:01;7.00;;;3.08;;
51556;SDS011;38766;53.194;5.532;2022-11-15T15:49:32;4.00;;;2.80;;
51556;SDS011;38766;53.194;5.532;2022-11-15T15:51:58;6.78;;;2.83;;
51556;SDS011;38766;53.194;5.532;2022-11-15T15:54:24;4.25;;;2.50;;
51556;SDS011;38766;53.194;5.532;2022-11-15T15:56:49;3.65;;;2.50;;
51556;SDS011;38766;53.194;5.532;2022-11-15T15:59:15;7.50;;;3.13;;
51556;SDS011;38766;53.194;5.532;2022-11-15T16:01:40;5.38;;;3.03;;
51556;SDS011;38766;53.194;5.532;2022-11-15T16:04:06;6.07;;;3.28;;
51556;SDS011;38766;53.194;5.532;2022-11-15T16:09:02;8.90;;;3.38;;
51556;SDS011;38766;53.194;5.532;2022-11-15T16:11:28;7.30;;;3.30;;
51556;SDS011;38766;53.194;5.532;2022-11-15T16:13:54;4.13;;;3.58;;
51556;SDS011;38766;53.194;5.532;2022-11-15T16:16:19;8.38;;;6.28;;
51556;SDS011;38766;53.194;5.532;2022-11-15T16:18:46;4.25;;;2.88;;
51556;SDS011;38766;53.194;5.532;2022-11-15T16:21:12;3.78;;;2.83;;
51556;SDS011;38766;53.194;5.532;2022-11-15T16:23:38;6.45;;;2.45;;
51556;SDS011;38766;53.194;5.532;2022-11-15T16:26:09;4.78;;;2.60;;
51556;SDS011;38766;53.194;5.532;2022-11-15T16:28:45;6.03;;;3.30;;
51556;SDS011;38766;53.194;5.532;2022-11-15T16:31:11;6.43;;;3.53;;
51556;SDS011;38766;53.194;5.532;2022-11-15T16:33:37;6.13;;;3.40;;
51556;SDS011;38766;53.194;5.532;2022-11-15T16:36:05;3.53;;;2.85;;
51556;SDS011;38766;53.194;5.532;2022-11-15T16:38:45;6.25;;;3.08;;
51556;SDS011;38766;53.194;5.532;2022-11-15T16:41:11;4.88;;;3.20;;
51556;SDS011;38766;53.194;5.532;2022-11-15T16:43:37;4.28;;;3.30;;
51556;SDS011;38766;53.194;5.532;2022-11-15T16:46:11;5.18;;;3.53;;
51556;SDS011;38766;53.194;5.532;2022-11-15T16:48:45;3.95;;;2.92;;
51556;SDS011;38766;53.194;5.532;2022-11-15T16:51:15;4.20;;;3.10;;
51556;SDS011;38766;53.194;5.532;2022-11-15T16:53:41;4.78;;;3.17;;
51556;SDS011;38766;53.194;5.532;2022-11-15T16:56:24;9.57;;;3.60;;
51556;SDS011;38766;53.194;5.532;2022-11-15T16:58:55;5.13;;;3.60;;
51556;SDS011;38766;53.194;5.532;2022-11-15T17:01:25;6.40;;;3.72;;
51556;SDS011;38766;53.194;5.532;2022-11-15T17:03:54;5.20;;;3.55;;